createdAt,value
2017-09-23T00:00:20.550Z,99.99
2017-09-23T00:01:20.549Z,99.99
2017-09-23T00:02:20.548Z,99.99
2017-09-23T00:03:20.546Z,99.99
2017-09-23T00:04:20.544Z,99.99
2017-09-23T00:05:20.544Z,99.99
2017-09-23T00:06:20.541Z,99.99
2017-09-23T00:07:20.544Z,99.99
2017-09-23T00:08:20.543Z,99.99
2017-09-23T00:09:20.543Z,99.99
2017-09-23T00:10:20.541Z,99.99
2017-09-23T00:11:20.538Z,99.99
2017-09-23T00:12:20.537Z,99.99
2017-09-23T00:13:20.537Z,99.99
2017-09-23T00:14:20.537Z,99.99
2017-09-23T00:15:20.530Z,99.99
2017-09-23T00:16:20.533Z,99.99
2017-09-23T00:17:20.527Z,99.99
2017-09-23T00:18:20.528Z,99.99
2017-09-23T00:19:20.524Z,99.99
2017-09-23T00:20:20.522Z,99.99
2017-09-23T00:21:20.523Z,99.99
2017-09-23T00:22:20.520Z,99.99
2017-09-23T00:23:20.526Z,99.99
2017-09-23T00:24:20.522Z,99.99
2017-09-23T00:25:20.521Z,99.99
2017-09-23T00:26:20.519Z,99.99
2017-09-23T00:27:20.518Z,99.99
2017-09-23T00:28:20.516Z,99.99
2017-09-23T00:29:20.515Z,99.99
2017-09-23T00:30:20.514Z,99.99
2017-09-23T00:31:20.506Z,99.99
2017-09-23T00:32:20.506Z,99.99
2017-09-23T00:33:20.506Z,99.99
2017-09-23T00:34:20.505Z,99.99
2017-09-23T00:35:20.500Z,99.99
2017-09-23T00:36:20.502Z,99.99
2017-09-23T00:37:20.499Z,99.99
2017-09-23T00:38:20.497Z,99.99
2017-09-23T00:39:20.499Z,99.99
2017-09-23T00:40:20.497Z,99.99
2017-09-23T00:41:20.496Z,99.99
2017-09-23T00:42:20.494Z,99.99
2017-09-23T00:43:20.493Z,99.99
2017-09-23T00:44:20.492Z,99.99
2017-09-23T00:45:20.491Z,99.99
2017-09-23T00:46:20.489Z,99.99
2017-09-23T00:47:20.483Z,99.99
2017-09-23T00:48:20.481Z,99.99
2017-09-23T00:49:20.479Z,99.99
2017-09-23T00:50:20.478Z,99.99
2017-09-23T00:51:20.476Z,99.99
2017-09-23T00:52:20.474Z,99.99
2017-09-23T00:53:20.474Z,99.99
2017-09-23T00:54:20.472Z,99.99
2017-09-23T00:55:20.474Z,99.99
2017-09-23T00:56:20.472Z,99.99
2017-09-23T00:57:20.471Z,99.99
2017-09-23T00:58:20.468Z,99.99
2017-09-23T00:59:20.467Z,99.99
2017-09-23T01:00:20.464Z,99.99
2017-09-23T01:01:20.464Z,99.99
2017-09-23T01:02:20.464Z,99.99
2017-09-23T01:03:20.456Z,99.99
2017-09-23T01:04:20.454Z,99.99
2017-09-23T01:05:20.453Z,99.99
2017-09-23T01:06:20.451Z,99.99
2017-09-23T01:07:20.449Z,99.99
2017-09-23T01:08:20.448Z,99.99
2017-09-23T01:09:20.447Z,99.99
2017-09-23T01:10:20.443Z,99.99
2017-09-23T01:11:20.447Z,99.99
2017-09-23T01:12:20.446Z,99.99
2017-09-23T01:13:20.444Z,99.99
2017-09-23T01:14:20.442Z,99.99
2017-09-23T01:15:20.440Z,99.99
2017-09-23T01:16:20.440Z,99.99
2017-09-23T01:17:20.442Z,99.99
2017-09-23T01:18:20.443Z,99.99
2017-09-23T01:19:20.430Z,99.99
2017-09-23T01:20:20.429Z,99.99
2017-09-23T01:21:20.428Z,99.99
2017-09-23T01:22:20.427Z,99.99
2017-09-23T01:23:20.425Z,99.99
2017-09-23T01:24:20.423Z,99.99
2017-09-23T01:25:20.422Z,99.99
2017-09-23T01:26:20.421Z,99.99
2017-09-23T01:27:20.423Z,99.99
2017-09-23T01:28:20.420Z,99.99
2017-09-23T01:29:20.419Z,99.99
2017-09-23T01:30:20.420Z,99.99
2017-09-23T01:31:20.417Z,99.99
2017-09-23T01:32:20.415Z,99.99
2017-09-23T01:33:20.413Z,99.99
2017-09-23T01:34:20.413Z,99.99
2017-09-23T01:35:20.406Z,99.99
2017-09-23T01:36:20.406Z,99.99
2017-09-23T01:37:20.404Z,99.99
2017-09-23T01:38:20.403Z,99.99
2017-09-23T01:39:20.401Z,99.99
2017-09-23T01:40:20.400Z,99.99
2017-09-23T01:41:20.398Z,99.99
2017-09-23T01:42:20.399Z,99.99
2017-09-23T01:43:20.400Z,99.99
2017-09-23T01:44:20.399Z,99.99
2017-09-23T01:45:20.397Z,99.99
2017-09-23T01:46:20.402Z,99.99
2017-09-23T01:47:20.398Z,99.99
2017-09-23T01:48:20.394Z,99.99
2017-09-23T01:49:20.392Z,99.99
2017-09-23T01:50:20.391Z,99.99
2017-09-23T01:51:20.385Z,99.99
2017-09-23T01:52:20.383Z,99.99
2017-09-23T01:53:20.383Z,99.99
2017-09-23T01:54:20.382Z,99.99
2017-09-23T01:55:20.384Z,99.99
2017-09-23T01:56:20.383Z,99.99
2017-09-23T01:57:20.381Z,99.99
2017-09-23T01:58:20.382Z,99.99
2017-09-23T01:59:20.374Z,99.99
2017-09-23T02:00:20.372Z,99.99
2017-09-23T02:01:20.373Z,99.99
2017-09-23T02:02:20.371Z,99.99
2017-09-23T02:03:20.369Z,99.99
2017-09-23T02:04:20.368Z,99.99
2017-09-23T02:05:20.367Z,99.99
2017-09-23T02:06:20.366Z,99.99
2017-09-23T02:07:20.368Z,99.99
2017-09-23T02:08:20.366Z,99.99
2017-09-23T02:09:20.368Z,99.99
2017-09-23T02:10:20.363Z,99.99
2017-09-23T02:11:20.361Z,99.99
2017-09-23T02:12:20.360Z,99.99
2017-09-23T02:13:20.358Z,99.99
2017-09-23T02:14:20.358Z,99.99
2017-09-23T02:15:20.351Z,99.99
2017-09-23T02:16:20.352Z,99.99
2017-09-23T02:17:20.349Z,99.99
2017-09-23T02:18:20.349Z,99.99
2017-09-23T02:19:20.345Z,99.99
2017-09-23T02:20:20.344Z,99.99
2017-09-23T02:21:20.344Z,99.99
2017-09-23T02:22:20.340Z,99.99
2017-09-23T02:23:20.383Z,99.99
2017-09-23T02:24:20.342Z,99.99
2017-09-23T02:25:20.341Z,99.99
2017-09-23T02:26:20.339Z,99.99
2017-09-23T02:27:20.337Z,99.99
2017-09-23T02:28:20.336Z,99.99
2017-09-23T02:29:20.335Z,99.99
2017-09-23T02:30:20.343Z,99.99
2017-09-23T02:31:20.327Z,99.99
2017-09-23T02:32:20.325Z,99.99
2017-09-23T02:33:20.324Z,99.99
2017-09-23T02:34:20.322Z,99.99
2017-09-23T02:35:20.320Z,99.99
2017-09-23T02:36:20.319Z,99.99
2017-09-23T02:37:20.318Z,99.99
2017-09-23T02:38:20.316Z,99.99
2017-09-23T02:39:20.320Z,99.99
2017-09-23T02:40:20.318Z,99.99
2017-09-23T02:41:20.323Z,99.99
2017-09-23T02:42:20.314Z,99.99
2017-09-23T02:43:20.313Z,99.99
2017-09-23T02:44:20.312Z,99.99
2017-09-23T02:45:20.309Z,99.99
2017-09-23T02:46:20.308Z,99.99
2017-09-23T02:47:20.302Z,99.99
2017-09-23T02:48:20.301Z,99.99
2017-09-23T02:49:20.300Z,99.99
2017-09-23T02:50:20.298Z,99.99
2017-09-23T02:51:20.296Z,99.99
2017-09-23T02:52:20.295Z,99.99
2017-09-23T02:53:20.293Z,99.99
2017-09-23T02:54:20.294Z,99.99
2017-09-23T02:55:20.295Z,99.99
2017-09-23T02:56:20.293Z,99.99
2017-09-23T02:57:20.292Z,99.99
2017-09-23T02:58:20.291Z,99.99
2017-09-23T02:59:20.286Z,99.99
2017-09-23T03:00:20.282Z,99.99
2017-09-23T03:01:20.281Z,99.99
2017-09-23T03:02:20.279Z,99.99
2017-09-23T03:03:20.288Z,99.99
2017-09-23T03:04:20.286Z,99.99
2017-09-23T03:05:20.281Z,99.99
2017-09-23T03:06:20.279Z,99.99
2017-09-23T03:07:20.276Z,99.99
2017-09-23T03:08:20.274Z,99.99
2017-09-23T03:09:20.273Z,99.99
2017-09-23T03:10:20.272Z,99.99
2017-09-23T03:11:20.267Z,99.99
2017-09-23T03:12:20.270Z,99.99
2017-09-23T03:13:20.263Z,99.99
2017-09-23T03:14:20.262Z,99.99
2017-09-23T03:15:20.259Z,99.99
2017-09-23T03:16:20.258Z,99.99
2017-09-23T03:17:20.256Z,99.99
2017-09-23T03:18:20.256Z,99.99
2017-09-23T03:19:20.258Z,99.99
2017-09-23T03:20:20.256Z,99.99
2017-09-23T03:21:20.255Z,99.99
2017-09-23T03:22:20.254Z,99.99
2017-09-23T03:23:20.252Z,99.99
2017-09-23T03:24:20.250Z,99.99
2017-09-23T03:25:20.248Z,99.99
2017-09-23T03:26:20.248Z,99.99
2017-09-23T03:27:20.248Z,99.99
2017-09-23T03:28:20.239Z,99.99
2017-09-23T03:29:20.239Z,99.99
2017-09-23T03:30:20.242Z,99.99
2017-09-23T03:31:20.236Z,99.99
2017-09-23T03:32:20.234Z,99.99
2017-09-23T03:33:20.233Z,99.99
2017-09-23T03:34:20.234Z,99.99
2017-09-23T03:35:20.235Z,99.99
2017-09-23T03:36:20.234Z,99.99
2017-09-23T03:37:20.232Z,99.99
2017-09-23T03:38:20.231Z,99.99
2017-09-23T03:39:20.229Z,99.99
2017-09-23T03:40:20.227Z,99.99
2017-09-23T03:41:20.231Z,99.99
2017-09-23T03:42:20.225Z,99.99
2017-09-23T03:43:20.218Z,99.99
2017-09-23T03:44:20.217Z,99.99
2017-09-23T03:45:20.214Z,99.99
2017-09-23T03:46:20.214Z,99.99
2017-09-23T03:47:20.214Z,99.99
2017-09-23T03:48:20.210Z,99.99
2017-09-23T03:49:20.210Z,99.99
2017-09-23T03:50:20.208Z,99.99
2017-09-23T03:51:20.211Z,99.99
2017-09-23T03:52:20.209Z,99.99
2017-09-23T03:53:20.207Z,99.99
2017-09-23T03:54:20.207Z,99.99
2017-09-23T03:55:20.205Z,99.99
2017-09-23T03:56:20.203Z,99.99
2017-09-23T03:57:20.202Z,99.99
2017-09-23T03:58:20.201Z,99.99
2017-09-23T03:59:20.193Z,99.99
2017-09-23T04:00:20.193Z,99.99
2017-09-23T04:01:20.192Z,99.99
2017-09-23T04:02:20.191Z,99.99
2017-09-23T04:03:20.193Z,99.99
2017-09-23T04:04:20.196Z,99.99
2017-09-23T04:05:20.191Z,99.99
2017-09-23T04:06:20.188Z,99.99
2017-09-23T04:07:20.183Z,99.99
2017-09-23T04:08:20.180Z,99.99
2017-09-23T04:09:20.179Z,99.99
2017-09-23T04:10:20.179Z,99.99
2017-09-23T04:11:20.175Z,99.99
2017-09-23T04:12:20.176Z,99.99
2017-09-23T04:13:20.174Z,99.99
2017-09-23T04:14:20.173Z,99.99
2017-09-23T04:15:20.174Z,99.99
2017-09-23T04:16:20.174Z,99.99
2017-09-23T04:17:20.171Z,99.99
2017-09-23T04:18:20.171Z,99.99
2017-09-23T04:19:20.170Z,99.99
2017-09-23T04:20:20.167Z,99.99
2017-09-23T04:21:20.167Z,99.99
2017-09-23T04:22:20.165Z,99.99
2017-09-23T04:23:20.159Z,99.99
2017-09-23T04:24:20.158Z,99.99
2017-09-23T04:25:20.160Z,99.99
2017-09-23T04:26:20.155Z,99.99
2017-09-23T04:27:20.152Z,99.99
2017-09-23T04:28:20.153Z,99.99
2017-09-23T04:29:20.151Z,99.99
2017-09-23T04:30:20.144Z,99.99
2017-09-23T04:31:20.136Z,99.99
2017-09-23T04:32:20.145Z,99.99
2017-09-23T04:33:20.134Z,99.99
2017-09-23T04:34:20.134Z,99.99
2017-09-23T04:35:20.130Z,99.99
2017-09-23T04:36:20.129Z,99.99
2017-09-23T04:37:20.126Z,99.99
2017-09-23T04:38:20.126Z,99.99
2017-09-23T04:39:20.120Z,99.99
2017-09-23T04:40:20.119Z,99.99
2017-09-23T04:41:20.117Z,99.99
2017-09-23T04:42:20.117Z,99.99
2017-09-23T04:43:20.113Z,99.99
2017-09-23T04:44:20.113Z,99.99
2017-09-23T04:45:20.112Z,99.99
2017-09-23T04:46:20.110Z,99.99
2017-09-23T04:47:20.112Z,99.99
2017-09-23T04:48:20.111Z,99.99
2017-09-23T04:49:20.109Z,99.99
2017-09-23T04:50:20.110Z,99.99
2017-09-23T04:51:20.104Z,99.99
2017-09-23T04:52:20.107Z,99.99
2017-09-23T04:53:20.102Z,99.99
2017-09-23T04:54:20.102Z,99.99
2017-09-23T04:55:20.094Z,99.99
2017-09-23T04:56:20.094Z,99.99
2017-09-23T04:57:20.093Z,99.99
2017-09-23T04:58:20.091Z,99.99
2017-09-23T04:59:20.095Z,99.99
2017-09-23T05:00:20.087Z,99.99
2017-09-23T05:01:20.084Z,99.99
2017-09-23T05:02:20.083Z,99.99
2017-09-23T05:03:20.086Z,99.99
2017-09-23T05:04:20.085Z,99.99
2017-09-23T05:05:20.083Z,99.99
2017-09-23T05:06:20.081Z,99.99
2017-09-23T05:07:20.081Z,99.99
2017-09-23T05:08:20.078Z,99.99
2017-09-23T05:09:20.077Z,99.99
2017-09-23T05:10:20.074Z,99.99
2017-09-23T05:11:20.068Z,99.99
2017-09-23T05:12:20.067Z,99.99
2017-09-23T05:13:20.065Z,99.99
2017-09-23T05:14:20.065Z,99.99
2017-09-23T05:15:20.062Z,99.99
2017-09-23T05:16:20.061Z,99.99
2017-09-23T05:17:20.060Z,99.99
2017-09-23T05:18:20.058Z,99.99
2017-09-23T05:19:20.060Z,99.99
2017-09-23T05:20:20.058Z,99.99
2017-09-23T05:21:20.056Z,99.99
2017-09-23T05:22:20.056Z,99.99
2017-09-23T05:23:20.052Z,99.99
2017-09-23T05:24:20.052Z,99.99
2017-09-23T05:25:20.050Z,99.99
2017-09-23T05:26:20.049Z,99.99
2017-09-23T05:27:20.042Z,99.99
2017-09-23T05:28:20.039Z,99.99
2017-09-23T05:29:20.038Z,99.99
2017-09-23T05:30:20.036Z,99.99
2017-09-23T05:31:20.034Z,99.99
2017-09-23T05:32:20.034Z,99.99
2017-09-23T05:33:20.031Z,99.99
2017-09-23T05:34:20.031Z,99.99
2017-09-23T05:35:20.030Z,99.99
2017-09-23T05:36:20.029Z,99.99
2017-09-23T05:37:20.028Z,99.99
2017-09-23T05:38:20.028Z,99.99
2017-09-23T05:39:20.023Z,99.99
2017-09-23T05:40:20.022Z,99.99
2017-09-23T05:41:20.021Z,99.99
2017-09-23T05:42:20.025Z,99.99
2017-09-23T05:43:20.015Z,99.99
2017-09-23T05:44:20.017Z,99.99
2017-09-23T05:45:20.010Z,99.99
2017-09-23T05:46:20.008Z,99.99
2017-09-23T05:47:20.005Z,99.99
2017-09-23T05:48:20.004Z,99.99
2017-09-23T05:49:20.002Z,99.99
2017-09-23T05:50:20.001Z,99.99
2017-09-23T05:51:20.003Z,99.99
2017-09-23T05:52:20.008Z,99.99
2017-09-23T05:53:19.999Z,99.99
2017-09-23T05:54:19.997Z,99.99
2017-09-23T05:55:19.995Z,99.99
2017-09-23T05:56:19.992Z,99.99
2017-09-23T05:57:19.991Z,99.99
2017-09-23T05:58:19.990Z,99.99
2017-09-23T05:59:19.983Z,99.99
2017-09-23T06:00:19.981Z,99.99
2017-09-23T06:01:19.980Z,99.99
2017-09-23T06:02:19.979Z,99.99
2017-09-23T06:03:19.976Z,99.99
2017-09-23T06:04:19.975Z,99.99
2017-09-23T06:05:19.971Z,99.99
2017-09-23T06:06:19.970Z,99.99
2017-09-23T06:07:19.971Z,99.99
2017-09-23T06:08:19.971Z,99.99
2017-09-23T06:09:19.969Z,99.99
2017-09-23T06:10:19.965Z,99.99
2017-09-23T06:11:19.959Z,99.99
2017-09-23T06:12:19.957Z,99.99
2017-09-23T06:13:19.958Z,99.99
2017-09-23T06:14:19.961Z,99.99
2017-09-23T06:15:19.957Z,99.99
2017-09-23T06:16:19.958Z,99.99
2017-09-23T06:17:19.954Z,99.99
2017-09-23T06:18:19.952Z,99.99
2017-09-23T06:19:19.956Z,99.99
2017-09-23T06:20:19.949Z,99.99
2017-09-23T06:21:19.949Z,99.99
2017-09-23T06:22:19.968Z,99.99
2017-09-23T06:23:19.940Z,99.99
2017-09-23T06:24:19.939Z,99.99
2017-09-23T06:25:19.942Z,99.99
2017-09-23T06:26:19.936Z,99.99
2017-09-23T06:27:19.933Z,99.99
2017-09-23T06:28:19.933Z,99.99
2017-09-23T06:29:19.931Z,99.99
2017-09-23T06:30:19.929Z,99.99
2017-09-23T06:31:19.935Z,99.99
2017-09-23T06:32:19.931Z,99.99
2017-09-23T06:33:19.930Z,99.99
2017-09-23T06:34:19.930Z,99.99
2017-09-23T06:35:19.927Z,99.99
2017-09-23T06:36:19.926Z,99.99
2017-09-23T06:37:19.926Z,99.99
2017-09-23T06:38:19.925Z,99.77
2017-09-23T06:39:19.918Z,98.86
2017-09-23T06:40:19.919Z,98.81
2017-09-23T06:41:19.917Z,98.33
2017-09-23T06:42:19.917Z,97.71
2017-09-23T06:43:19.916Z,98.00
2017-09-23T06:44:19.914Z,96.94
2017-09-23T06:45:19.913Z,97.23
2017-09-23T06:46:19.915Z,97.23
2017-09-23T06:47:19.916Z,96.56
2017-09-23T06:48:19.915Z,96.08
2017-09-23T06:49:19.917Z,95.98
2017-09-23T06:50:19.915Z,95.41
2017-09-23T06:51:19.916Z,95.51
2017-09-23T06:52:19.914Z,95.31
2017-09-23T06:53:19.913Z,95.03
2017-09-23T06:54:19.913Z,95.21
2017-09-23T06:55:19.908Z,94.74
2017-09-23T06:56:19.908Z,94.98
2017-09-23T06:57:19.908Z,94.45
2017-09-23T06:58:19.908Z,94.45
2017-09-23T06:59:19.906Z,94.74
2017-09-23T07:00:19.907Z,95.03
2017-09-23T07:01:19.907Z,95.12
2017-09-23T07:02:19.905Z,95.21
2017-09-23T07:03:19.907Z,96.08
2017-09-23T07:04:19.907Z,95.60
2017-09-23T07:05:19.908Z,95.51
2017-09-23T07:06:19.908Z,96.47
2017-09-23T07:07:19.908Z,96.32
2017-09-23T07:08:19.905Z,96.03
2017-09-23T07:09:19.906Z,96.03
2017-09-23T07:10:19.909Z,96.51
2017-09-23T07:11:19.900Z,96.22
2017-09-23T07:12:19.900Z,96.13
2017-09-23T07:13:19.900Z,97.09
2017-09-23T07:14:19.899Z,97.14
2017-09-23T07:15:19.903Z,96.37
2017-09-23T07:16:19.902Z,96.56
2017-09-23T07:17:19.901Z,96.27
2017-09-23T07:18:19.906Z,96.27
2017-09-23T07:19:19.896Z,95.51
2017-09-23T07:20:19.901Z,95.46
2017-09-23T07:21:19.897Z,95.65
2017-09-23T07:22:19.895Z,95.26
2017-09-23T07:23:19.893Z,95.26
2017-09-23T07:24:19.893Z,94.79
2017-09-23T07:25:19.892Z,94.31
2017-09-23T07:26:19.893Z,94.21
2017-09-23T07:27:19.896Z,94.88
2017-09-23T07:28:19.895Z,94.49
2017-09-23T07:29:19.896Z,94.31
2017-09-23T07:30:19.896Z,94.12
2017-09-23T07:31:19.896Z,94.21
2017-09-23T07:32:19.897Z,94.49
2017-09-23T07:33:19.895Z,94.12
2017-09-23T07:34:19.897Z,94.79
2017-09-23T07:35:19.890Z,94.31
2017-09-23T07:36:19.890Z,94.12
2017-09-23T07:37:19.888Z,94.69
2017-09-23T07:38:19.889Z,94.40
2017-09-23T07:39:19.890Z,94.49
2017-09-23T07:40:19.889Z,94.02
2017-09-23T07:41:19.908Z,94.02
2017-09-23T07:42:19.887Z,93.92
2017-09-23T07:43:19.891Z,94.31
2017-09-23T07:44:19.892Z,94.88
2017-09-23T07:45:19.890Z,94.88
2017-09-23T07:46:19.895Z,94.69
2017-09-23T07:47:19.891Z,94.88
2017-09-23T07:48:19.895Z,94.88
2017-09-23T07:49:19.890Z,94.79
2017-09-23T07:50:19.891Z,94.31
2017-09-23T07:51:19.885Z,94.40
2017-09-23T07:52:19.884Z,94.02
2017-09-23T07:53:19.886Z,93.92
2017-09-23T07:54:19.885Z,93.82
2017-09-23T07:55:19.884Z,94.21
2017-09-23T07:56:19.884Z,93.92
2017-09-23T07:57:19.882Z,94.31
2017-09-23T07:58:19.882Z,93.15
2017-09-23T07:59:19.887Z,93.35
2017-09-23T08:00:19.888Z,94.31
2017-09-23T08:01:19.885Z,94.31
2017-09-23T08:02:19.886Z,94.12
2017-09-23T08:03:19.884Z,93.54
2017-09-23T08:04:19.885Z,93.82
2017-09-23T08:05:19.885Z,93.15
2017-09-23T08:06:19.885Z,93.06
2017-09-23T08:07:19.880Z,92.96
2017-09-23T08:08:19.878Z,93.25
2017-09-23T08:09:19.879Z,93.06
2017-09-23T08:10:19.879Z,92.48
2017-09-23T08:11:19.880Z,92.86
2017-09-23T08:12:19.878Z,92.58
2017-09-23T08:13:19.877Z,92.86
2017-09-23T08:14:19.876Z,93.06
2017-09-23T08:15:19.880Z,93.25
2017-09-23T08:16:19.880Z,93.82
2017-09-23T08:17:19.880Z,93.82
2017-09-23T08:18:19.880Z,93.35
2017-09-23T08:19:19.875Z,92.77
2017-09-23T08:20:19.876Z,92.53
2017-09-23T08:21:19.874Z,92.68
2017-09-23T08:22:19.876Z,92.68
2017-09-23T08:23:19.877Z,93.01
2017-09-23T08:24:19.878Z,92.91
2017-09-23T08:25:19.878Z,93.30
2017-09-23T08:26:19.877Z,92.24
2017-09-23T08:27:19.877Z,91.86
2017-09-23T08:28:19.878Z,92.10
2017-09-23T08:29:19.878Z,91.13
2017-09-23T08:30:19.879Z,90.27
2017-09-23T08:31:19.872Z,89.94
2017-09-23T08:32:19.874Z,89.60
2017-09-23T08:33:19.873Z,89.79
2017-09-23T08:34:19.874Z,89.02
2017-09-23T08:35:19.874Z,89.07
2017-09-23T08:36:19.873Z,89.36
2017-09-23T08:37:19.874Z,88.78
2017-09-23T08:38:19.874Z,88.59
2017-09-23T08:39:19.879Z,87.62
2017-09-23T08:40:19.880Z,86.85
2017-09-23T08:41:19.881Z,86.28
2017-09-23T08:42:19.880Z,85.94
2017-09-23T08:43:19.881Z,86.13
2017-09-23T08:44:19.882Z,86.08
2017-09-23T08:45:19.882Z,84.18
2017-09-23T08:46:19.882Z,80.54
2017-09-23T08:47:19.878Z,76.42
2017-09-23T08:48:19.881Z,73.30
2017-09-23T08:49:19.882Z,70.34
2017-09-23T08:50:19.885Z,68.27
2017-09-23T08:51:19.886Z,67.94
2017-09-23T08:52:19.889Z,67.24
2017-09-23T08:53:19.892Z,67.75
2017-09-23T08:54:19.895Z,68.01
2017-09-23T08:55:19.900Z,69.61
2017-09-23T08:56:19.904Z,71.41
2017-09-23T08:57:19.908Z,71.79
2017-09-23T08:58:19.913Z,72.18
2017-09-23T08:59:19.915Z,71.98
2017-09-23T09:00:19.919Z,71.79
2017-09-23T09:01:19.923Z,72.72
2017-09-23T09:02:19.927Z,73.26
2017-09-23T09:03:19.927Z,73.36
2017-09-23T09:04:19.930Z,73.47
2017-09-23T09:05:19.935Z,74.82
2017-09-23T09:06:19.939Z,75.15
2017-09-23T09:07:19.941Z,74.96
2017-09-23T09:08:19.945Z,75.48
2017-09-23T09:09:19.949Z,74.80
2017-09-23T09:10:19.953Z,74.74
2017-09-23T09:11:19.960Z,75.03
2017-09-23T09:12:19.974Z,74.58
2017-09-23T09:13:19.967Z,74.18
2017-09-23T09:14:19.973Z,73.15
2017-09-23T09:15:19.974Z,71.64
2017-09-23T09:16:19.979Z,70.39
2017-09-23T09:17:19.982Z,69.68
2017-09-23T09:18:19.986Z,66.95
2017-09-23T09:19:19.985Z,65.47
2017-09-23T09:20:19.988Z,63.04
2017-09-23T09:21:19.995Z,59.92
2017-09-23T09:22:19.998Z,56.77
2017-09-23T09:23:20.002Z,54.69
2017-09-23T09:24:20.007Z,52.43
2017-09-23T09:25:20.012Z,52.18
2017-09-23T09:26:20.019Z,55.00
2017-09-23T09:27:20.028Z,55.74
2017-09-23T09:28:20.035Z,55.67
2017-09-23T09:29:20.042Z,55.50
2017-09-23T09:30:20.049Z,54.90
2017-09-23T09:31:20.054Z,53.42
2017-09-23T09:32:20.061Z,50.78
2017-09-23T09:33:20.072Z,48.68
2017-09-23T09:34:20.076Z,46.80
2017-09-23T09:35:20.080Z,45.64
2017-09-23T09:36:20.111Z,45.05
2017-09-23T09:37:20.096Z,46.34
2017-09-23T09:38:20.103Z,46.88
2017-09-23T09:39:20.112Z,48.22
2017-09-23T09:40:20.122Z,49.02
2017-09-23T09:41:20.133Z,48.19
2017-09-23T09:42:20.141Z,47.66
2017-09-23T09:43:20.153Z,48.83
2017-09-23T09:44:20.164Z,49.76
2017-09-23T09:45:20.175Z,48.80
2017-09-23T09:46:20.183Z,47.34
2017-09-23T09:47:20.193Z,46.27
2017-09-23T09:48:20.202Z,44.71
2017-09-23T09:49:20.213Z,43.99
2017-09-23T09:50:20.222Z,43.57
2017-09-23T09:51:20.227Z,42.93
2017-09-23T09:52:20.239Z,40.94
2017-09-23T09:53:20.252Z,38.74
2017-09-23T09:54:20.267Z,37.46
2017-09-23T09:55:20.274Z,37.19
2017-09-23T09:56:20.305Z,36.30
2017-09-23T09:57:20.299Z,35.21
2017-09-23T09:58:20.307Z,35.81
2017-09-23T09:59:20.321Z,37.79
2017-09-23T10:00:20.334Z,39.29
2017-09-23T10:01:20.347Z,39.80
2017-09-23T10:02:20.361Z,39.31
2017-09-23T10:03:20.370Z,40.50
2017-09-23T10:04:20.383Z,41.06
2017-09-23T10:05:20.394Z,41.55
2017-09-23T10:06:20.407Z,41.75
2017-09-23T10:07:20.414Z,43.16
2017-09-23T10:08:20.428Z,43.95
2017-09-23T10:09:20.437Z,46.11
2017-09-23T10:10:20.448Z,46.79
2017-09-23T10:11:20.460Z,46.42
2017-09-23T10:12:20.473Z,46.42
2017-09-23T10:13:20.483Z,46.42
2017-09-23T10:14:20.496Z,46.21
2017-09-23T10:15:20.507Z,46.69
2017-09-23T10:16:20.518Z,46.98
2017-09-23T10:17:20.530Z,46.64
2017-09-23T10:18:20.539Z,45.14
2017-09-23T10:19:20.552Z,43.48
2017-09-23T10:20:20.561Z,44.84
2017-09-23T10:21:20.572Z,44.92
2017-09-23T10:22:20.583Z,45.31
2017-09-23T10:23:20.589Z,47.72
2017-09-23T10:24:20.600Z,50.16
2017-09-23T10:25:20.612Z,52.04
2017-09-23T10:26:20.620Z,54.46
2017-09-23T10:27:20.633Z,55.81
2017-09-23T10:28:20.644Z,56.90
2017-09-23T10:29:20.653Z,56.77
2017-09-23T10:30:20.662Z,56.87
2017-09-23T10:31:20.666Z,57.84
2017-09-23T10:32:20.675Z,58.58
2017-09-23T10:33:20.682Z,58.80
2017-09-23T10:34:20.691Z,57.60
2017-09-23T10:35:20.698Z,55.76
2017-09-23T10:36:20.708Z,55.76
2017-09-23T10:37:20.715Z,54.33
2017-09-23T10:38:20.734Z,52.90
2017-09-23T10:39:20.735Z,52.97
2017-09-23T10:40:20.741Z,54.03
2017-09-23T10:41:20.749Z,54.37
2017-09-23T10:42:20.759Z,54.39
2017-09-23T10:43:20.763Z,55.88
2017-09-23T10:44:20.776Z,57.81
2017-09-23T10:45:20.778Z,59.61
2017-09-23T10:46:20.784Z,59.61
2017-09-23T10:47:20.808Z,60.22
2017-09-23T10:48:20.793Z,61.38
2017-09-23T10:49:20.799Z,61.44
2017-09-23T10:50:20.807Z,60.58
2017-09-23T10:51:20.812Z,61.71
2017-09-23T10:52:20.818Z,62.83
2017-09-23T10:53:20.825Z,63.82
2017-09-23T10:54:20.831Z,63.82
2017-09-23T10:55:20.839Z,63.82
2017-09-23T10:56:20.845Z,63.44
2017-09-23T10:57:20.850Z,63.98
2017-09-23T10:58:20.859Z,63.60
2017-09-23T10:59:20.860Z,64.18
2017-09-23T11:00:20.865Z,64.05
2017-09-23T11:01:20.871Z,62.73
2017-09-23T11:02:20.876Z,62.34
2017-09-23T11:03:20.875Z,61.34
2017-09-23T11:04:20.880Z,60.67
2017-09-23T11:05:20.886Z,59.89
2017-09-23T11:06:20.892Z,60.25
2017-09-23T11:07:20.896Z,61.22
2017-09-23T11:08:20.900Z,61.28
2017-09-23T11:09:20.905Z,60.93
2017-09-23T11:10:20.912Z,60.03
2017-09-23T11:11:20.921Z,60.25
2017-09-23T11:12:20.926Z,59.99
2017-09-23T11:13:20.931Z,61.02
2017-09-23T11:14:20.938Z,61.41
2017-09-23T11:15:20.941Z,61.38
2017-09-23T11:16:20.947Z,62.51
2017-09-23T11:17:20.954Z,62.89
2017-09-23T11:18:20.960Z,63.34
2017-09-23T11:19:20.960Z,64.31
2017-09-23T11:20:20.964Z,64.89
2017-09-23T11:21:20.975Z,66.20
2017-09-23T11:22:20.976Z,66.49
2017-09-23T11:23:20.979Z,66.97
2017-09-23T11:24:20.986Z,67.26
2017-09-23T11:25:20.990Z,67.52
2017-09-23T11:26:20.995Z,66.97
2017-09-23T11:27:21.002Z,65.91
2017-09-23T11:28:21.008Z,64.18
2017-09-23T11:29:21.013Z,63.63
2017-09-23T11:30:21.016Z,63.08
2017-09-23T11:31:21.017Z,62.60
2017-09-23T11:32:21.022Z,61.83
2017-09-23T11:33:21.025Z,60.76
2017-09-23T11:34:21.031Z,61.16
2017-09-23T11:35:21.040Z,62.76
2017-09-23T11:36:21.046Z,64.08
2017-09-23T11:37:21.049Z,65.08
2017-09-23T11:38:21.053Z,65.27
2017-09-23T11:39:21.056Z,65.27
2017-09-23T11:40:21.062Z,65.40
2017-09-23T11:41:21.067Z,65.30
2017-09-23T11:42:21.072Z,64.82
2017-09-23T11:43:21.070Z,64.50
2017-09-23T11:44:21.076Z,64.21
2017-09-23T11:45:21.078Z,64.56
2017-09-23T11:46:21.083Z,64.98
2017-09-23T11:47:21.086Z,64.08
2017-09-23T11:48:21.092Z,63.82
2017-09-23T11:49:21.094Z,63.54
2017-09-23T11:50:21.098Z,63.24
2017-09-23T11:51:21.106Z,64.11
2017-09-23T11:52:21.110Z,63.24
2017-09-23T11:53:21.113Z,63.63
2017-09-23T11:54:21.118Z,62.66
2017-09-23T11:55:21.121Z,62.86
2017-09-23T11:56:21.127Z,62.18
2017-09-23T11:57:21.129Z,62.12
2017-09-23T11:58:21.133Z,62.44
2017-09-23T11:59:21.136Z,62.05
2017-09-23T12:00:21.146Z,62.44
2017-09-23T12:01:21.140Z,61.86
2017-09-23T12:02:21.145Z,60.80
2017-09-23T12:03:21.147Z,60.93
2017-09-23T12:04:21.152Z,60.35
2017-09-23T12:05:21.157Z,60.25
2017-09-23T12:06:21.160Z,60.83
2017-09-23T12:07:21.167Z,59.86
2017-09-23T12:08:21.170Z,60.25
2017-09-23T12:09:21.178Z,60.41
2017-09-23T12:10:21.180Z,59.83
2017-09-23T12:11:21.215Z,60.51
2017-09-23T12:12:21.187Z,60.83
2017-09-23T12:13:21.189Z,61.22
2017-09-23T12:14:21.194Z,61.58
2017-09-23T12:15:21.193Z,61.61
2017-09-23T12:16:21.197Z,62.18
2017-09-23T12:17:21.201Z,63.15
2017-09-23T12:18:21.203Z,63.54
2017-09-23T12:19:21.207Z,65.20
2017-09-23T12:20:21.211Z,64.56
2017-09-23T12:21:21.222Z,64.47
2017-09-23T12:22:21.218Z,65.14
2017-09-23T12:23:21.226Z,65.43
2017-09-23T12:24:21.229Z,66.14
2017-09-23T12:25:21.233Z,65.37
2017-09-23T12:26:21.241Z,65.66
2017-09-23T12:27:21.238Z,64.02
2017-09-23T12:28:21.242Z,64.98
2017-09-23T12:29:21.244Z,64.98
2017-09-23T12:30:21.248Z,64.21
2017-09-23T12:31:21.246Z,64.31
2017-09-23T12:32:21.250Z,63.82
2017-09-23T12:33:21.254Z,63.47
2017-09-23T12:34:21.264Z,63.95
2017-09-23T12:35:21.265Z,63.54
2017-09-23T12:36:21.267Z,63.41
2017-09-23T12:37:21.270Z,64.47
2017-09-23T12:38:21.272Z,66.01
2017-09-23T12:39:21.272Z,66.52
2017-09-23T12:40:21.275Z,66.49
2017-09-23T12:41:21.278Z,66.59
2017-09-23T12:42:21.280Z,66.55
2017-09-23T12:43:21.284Z,66.49
2017-09-23T12:44:21.286Z,67.03
2017-09-23T12:45:21.290Z,67.42
2017-09-23T12:46:21.292Z,67.23
2017-09-23T12:47:21.298Z,67.74
2017-09-23T12:48:21.321Z,67.74
2017-09-23T12:49:21.305Z,68.13
2017-09-23T12:50:21.310Z,68.32
2017-09-23T12:51:21.310Z,67.84
2017-09-23T12:52:21.314Z,67.84